Time;durP1;ratioP1;P1;durP2;ratioP2;P2;SDS_P1;SDS_P2;PMS_P1;PMS_P2;Temp;Humidity;BMP_temperature;BMP_pressure;BME280_temperature;BME280_humidity;BME280_pressure;Samples;Min_cycle;Max_cycle;Signal;HPM_P1;HPM_P2
2024/01/25 00:00:18;;;;;;;24.67;3.78;;;7.60;99.90;;;;;;6147244;23;20640;-84
2024/01/25 00:02:45;;;;;;;29.50;4.15;;;7.60;99.90;;;;;;6146933;23;20088;-84
2024/01/25 00:05:11;;;;;;;22.90;3.13;;;7.50;99.90;;;;;;6147436;23;20009;-84
2024/01/25 00:07:48;;;;;;;25.40;4.18;;;7.50;99.90;;;;;;6146825;23;20388;-84
2024/01/25 00:10:17;;;;;;;19.15;3.35;;;7.50;99.90;;;;;;6147194;23;20010;-84
2024/01/25 00:12:43;;;;;;;24.50;3.80;;;7.40;99.90;;;;;;6146677;23;20421;-84
2024/01/25 00:15:10;;;;;;;31.83;4.22;;;7.80;99.90;;;;;;6146775;23;20009;-84
2024/01/25 00:17:37;;;;;;;30.83;3.67;;;7.50;99.90;;;;;;6146761;23;20061;-84
2024/01/25 00:20:05;;;;;;;25.90;3.75;;;7.50;99.90;;;;;;6171646;23;20013;-84
2024/01/25 00:22:31;;;;;;;27.85;3.47;;;7.50;99.90;;;;;;6147040;23;20059;-84
2024/01/25 00:24:58;;;;;;;19.88;4.38;;;8.00;99.90;;;;;;6147188;23;20052;-85
2024/01/25 00:27:25;;;;;;;26.60;3.50;;;7.60;99.90;;;;;;6147029;23;20100;-84
2024/01/25 00:29:52;;;;;;;19.48;3.60;;;7.40;99.90;;;;;;6146985;23;20013;-85
2024/01/25 00:32:18;;;;;;;18.42;3.28;;;7.60;99.90;;;;;;6147096;23;20016;-85
2024/01/25 00:34:45;;;;;;;31.65;4.03;;;7.80;99.90;;;;;;6147203;23;20376;-84
2024/01/25 00:37:12;;;;;;;22.40;3.67;;;7.30;99.90;;;;;;6147011;23;20500;-84
2024/01/25 00:39:39;;;;;;;30.38;3.65;;;7.30;99.90;;;;;;6146879;23;20072;-84
2024/01/25 00:42:06;;;;;;;23.85;4.05;;;7.20;99.90;;;;;;6146841;23;20345;-85
2024/01/25 00:44:33;;;;;;;18.58;4.10;;;7.20;99.90;;;;;;6146880;23;20014;-84
2024/01/25 00:47:00;;;;;;;25.08;3.78;;;7.10;99.90;;;;;;6146934;23;20449;-84
2024/01/25 00:49:27;;;;;;;25.35;4.32;;;7.10;99.90;;;;;;6146819;23;20013;-84
2024/01/25 00:51:59;;;;;;;24.83;3.55;;;7.10;99.90;;;;;;6146976;23;20013;-84
2024/01/25 00:54:26;;;;;;;25.52;3.92;;;7.10;99.90;;;;;;6147035;23;20641;-85
2024/01/25 00:56:53;;;;;;;30.58;3.75;;;7.00;99.90;;;;;;6147045;23;20010;-85
2024/01/25 00:59:20;;;;;;;28.77;4.20;;;7.00;99.90;;;;;;6146759;23;20409;-83
2024/01/25 01:01:48;;;;;;;24.02;4.03;;;7.00;99.90;;;;;;6147001;23;20024;-84
2024/01/25 01:04:15;;;;;;;20.85;3.47;;;6.90;99.90;;;;;;6146801;23;20668;-84
2024/01/25 01:06:42;;;;;;;21.75;3.63;;;6.90;99.90;;;;;;6171421;23;20017;-84
2024/01/25 01:09:09;;;;;;;22.80;3.72;;;6.90;99.90;;;;;;6146765;23;20013;-84
2024/01/25 01:11:38;;;;;;;25.67;4.90;;;6.90;99.90;;;;;;6146770;23;20037;-84
2024/01/25 01:14:05;;;;;;;25.15;3.70;;;6.90;99.90;;;;;;6171187;23;20010;-84
2024/01/25 01:16:33;;;;;;;27.85;3.92;;;7.60;99.90;;;;;;6171142;23;20013;-84
2024/01/25 01:19:06;;;;;;;25.52;4.13;;;7.10;99.90;;;;;;6171450;23;20017;-84
2024/01/25 01:21:34;;;;;;;18.08;3.28;;;6.80;99.90;;;;;;6147000;23;20100;-84
2024/01/25 01:24:01;;;;;;;30.65;5.45;;;7.20;99.90;;;;;;6146898;23;20017;-84
2024/01/25 01:26:28;;;;;;;26.95;3.85;;;6.70;99.90;;;;;;6148620;23;20062;-84
2024/01/25 01:28:55;;;;;;;22.45;3.47;;;6.70;99.90;;;;;;6148472;23;20022;-84
2024/01/25 01:31:21;;;;;;;25.40;3.83;;;6.70;99.90;;;;;;6148771;23;20349;-84
2024/01/25 01:33:48;;;;;;;24.65;3.83;;;6.60;99.90;;;;;;6148612;23;20016;-84
2024/01/25 01:36:14;;;;;;;25.20;4.10;;;7.50;99.90;;;;;;6148604;23;20006;-84
2024/01/25 01:38:41;;;;;;;32.92;5.10;;;6.60;99.90;;;;;;6148876;23;20040;-84
2024/01/25 01:41:10;;;;;;;21.67;3.95;;;6.80;99.90;;;;;;6173042;23;20024;-84
2024/01/25 01:43:36;;;;;;;18.70;3.60;;;6.60;99.90;;;;;;6148376;23;20096;-85
2024/01/25 01:46:12;;;;;;;21.10;4.00;;;6.70;99.90;;;;;;6148409;23;20464;-84
2024/01/25 01:48:40;;;;;;;20.27;3.50;;;6.50;99.90;;;;;;6148089;23;20014;-85
2024/01/25 01:51:08;;;;;;;22.20;4.00;;;6.50;99.90;;;;;;6148234;23;20014;-84
2024/01/25 01:53:36;;;;;;;35.63;4.07;;;6.90;99.90;;;;;;6148611;23;20016;-84
2024/01/25 01:56:03;;;;;;;28.73;3.72;;;6.60;99.90;;;;;;6148527;23;20020;-84
2024/01/25 01:58:31;;;;;;;29.08;4.00;;;6.40;99.90;;;;;;6148532;23;20017;-84
2024/01/25 02:00:59;;;;;;;25.65;4.20;;;6.50;99.90;;;;;;6148495;23;20084;-84
2024/01/25 02:03:26;;;;;;;28.98;4.00;;;6.40;99.90;;;;;;6148269;23;20040;-84
2024/01/25 02:05:53;;;;;;;39.05;4.68;;;6.40;99.90;;;;;;6148113;23;20017;-84
2024/01/25 02:08:20;;;;;;;31.42;4.20;;;6.90;99.90;;;;;;6148201;23;20014;-84
2024/01/25 02:10:46;;;;;;;25.52;3.25;;;6.60;99.90;;;;;;6148537;23;20009;-84
2024/01/25 02:13:13;;;;;;;24.90;3.85;;;6.40;99.90;;;;;;6148188;23;20068;-85
2024/01/25 02:15:39;;;;;;;21.48;3.58;;;7.00;99.90;;;;;;6148447;23;20463;-84
2024/01/25 02:18:06;;;;;;;24.02;4.05;;;6.40;99.90;;;;;;6148305;23;20075;-85
2024/01/25 02:20:33;;;;;;;28.23;3.90;;;6.80;99.90;;;;;;6148328;23;20009;-84
2024/01/25 02:22:59;;;;;;;30.75;3.72;;;6.30;99.90;;;;;;6148652;23;20479;-84
2024/01/25 02:25:26;;;;;;;33.45;4.60;;;6.30;99.90;;;;;;6148411;23;20993;-85
2024/01/25 02:27:53;;;;;;;28.05;4.55;;;6.80;99.90;;;;;;6148121;23;20013;-85
2024/01/25 02:30:19;;;;;;;26.42;3.72;;;6.20;99.90;;;;;;6147932;23;20326;-84
2024/01/25 02:32:46;;;;;;;28.27;4.30;;;6.20;99.90;;;;;;6148382;23;20014;-84
2024/01/25 02:35:12;;;;;;;23.77;3.47;;;6.20;99.90;;;;;;6148077;23;20089;-84
2024/01/25 02:37:39;;;;;;;27.75;4.00;;;6.20;99.90;;;;;;6148145;23;20013;-84
2024/01/25 02:40:06;;;;;;;29.30;3.63;;;6.20;99.90;;;;;;6148035;23;20487;-84
2024/01/25 02:42:33;;;;;;;30.30;4.13;;;6.10;99.90;;;;;;6147857;23;20045;-84
2024/01/25 02:44:59;;;;;;;28.00;4.07;;;6.60;99.90;;;;;;6147920;23;20010;-84
2024/01/25 02:47:26;;;;;;;20.67;3.50;;;6.10;99.90;;;;;;6148243;23;20013;-84
2024/01/25 02:49:53;;;;;;;19.67;3.30;;;6.10;99.90;;;;;;6172392;23;20104;-84
2024/01/25 02:52:19;;;;;;;15.65;2.95;;;6.10;99.90;;;;;;6172958;23;20009;-85
2024/01/25 02:54:46;;;;;;;24.48;4.25;;;6.00;99.90;;;;;;6147882;23;20036;-84
2024/01/25 02:57:13;;;;;;;22.80;3.97;;;6.00;99.90;;;;;;6148054;23;20619;-84
2024/01/25 02:59:39;;;;;;;28.13;4.22;;;6.00;99.90;;;;;;6147630;23;20009;-85
2024/01/25 03:02:06;;;;;;;28.83;4.00;;;6.00;99.90;;;;;;6147889;23;20444;-84
2024/01/25 03:04:32;;;;;;;30.00;4.32;;;6.10;99.90;;;;;;6147893;23;20063;-84
2024/01/25 03:06:59;;;;;;;24.75;3.58;;;6.00;99.90;;;;;;6147859;23;20456;-84
2024/01/25 03:09:26;;;;;;;33.58;4.80;;;6.10;99.90;;;;;;6147924;23;20021;-84
2024/01/25 03:11:52;;;;;;;24.77;3.95;;;6.20;99.90;;;;;;6147752;23;20006;-83
2024/01/25 03:14:19;;;;;;;24.60;3.38;;;6.40;99.90;;;;;;6147621;23;20060;-85
2024/01/25 03:16:46;;;;;;;27.20;3.63;;;5.90;99.90;;;;;;6147438;23;20013;-84
2024/01/25 03:19:12;;;;;;;22.83;3.60;;;6.10;99.90;;;;;;6147507;23;20021;-84
2024/01/25 03:21:39;;;;;;;24.42;3.58;;;5.90;99.90;;;;;;6147515;23;20016;-84
2024/01/25 03:24:06;;;;;;;30.42;4.47;;;6.50;99.90;;;;;;6147909;23;20021;-84
2024/01/25 03:26:32;;;;;;;27.80;3.95;;;6.00;99.90;;;;;;6147689;23;20345;-84
2024/01/25 03:28:59;;;;;;;35.92;4.25;;;5.90;99.90;;;;;;6147412;23;20013;-84
2024/01/25 03:31:26;;;;;;;26.88;3.80;;;6.50;99.90;;;;;;6147603;23;20009;-84
2024/01/25 03:33:52;;;;;;;27.05;4.15;;;6.00;99.90;;;;;;6147513;23;20463;-85
2024/01/25 03:36:19;;;;;;;31.35;4.78;;;6.30;99.90;;;;;;6147048;23;20021;-84
2024/01/25 03:38:46;;;;;;;32.20;4.65;;;5.90;99.90;;;;;;6147481;23;20024;-84
2024/01/25 03:41:13;;;;;;;27.63;4.10;;;6.60;99.90;;;;;;6147390;23;20072;-84
2024/01/25 03:43:40;;;;;;;32.17;4.68;;;5.80;99.90;;;;;;6147096;23;20013;-84
2024/01/25 03:46:06;;;;;;;29.13;4.38;;;6.40;99.90;;;;;;6171483;23;20016;-84
2024/01/25 03:48:33;;;;;;;36.45;4.95;;;6.10;99.90;;;;;;6147295;23;20369;-84
2024/01/25 03:51:00;;;;;;;22.90;3.63;;;6.30;99.90;;;;;;6147342;23;20006;-84
2024/01/25 03:53:26;;;;;;;26.85;4.88;;;5.70;99.90;;;;;;6172121;23;20009;-85
2024/01/25 03:55:53;;;;;;;34.08;4.68;;;5.70;99.90;;;;;;6147540;23;20013;-84
2024/01/25 03:58:19;;;;;;;26.00;3.72;;;5.70;99.90;;;;;;6147544;23;20017;-84
2024/01/25 04:00:46;;;;;;;27.85;3.88;;;5.60;99.90;;;;;;6147305;23;20018;-84
2024/01/25 04:03:13;;;;;;;30.50;5.32;;;5.60;99.90;;;;;;6147187;23;20024;-85
2024/01/25 04:05:40;;;;;;;25.75;4.03;;;5.80;99.90;;;;;;6147516;23;20017;-85
2024/01/25 04:08:06;;;;;;;26.65;3.78;;;5.60;99.90;;;;;;6146981;23;20449;-84
2024/01/25 04:10:33;;;;;;;30.02;4.78;;;5.50;99.90;;;;;;6147199;23;20010;-85
2024/01/25 04:13:00;;;;;;;35.53;3.95;;;5.50;99.90;;;;;;6147253;23;20028;-84
2024/01/25 04:15:27;;;;;;;33.20;4.65;;;5.40;99.90;;;;;;6147218;23;20016;-84
2024/01/25 04:17:55;;;;;;;37.25;4.97;;;5.40;99.90;;;;;;6146868;23;20013;-84
2024/01/25 04:20:22;;;;;;;39.95;5.00;;;6.20;99.90;;;;;;6147005;23;20036;-84
2024/01/25 04:22:49;;;;;;;28.30;4.03;;;5.40;99.90;;;;;;6147562;23;20010;-84
2024/01/25 04:25:15;;;;;;;26.10;4.00;;;5.30;99.90;;;;;;6147169;23;20037;-84
2024/01/25 04:27:42;;;;;;;26.73;4.10;;;6.10;99.90;;;;;;6147027;23;20014;-84
2024/01/25 04:30:09;;;;;;;29.25;4.22;;;5.90;99.90;;;;;;6147017;23;20089;-84
2024/01/25 04:32:36;;;;;;;27.35;3.72;;;5.30;99.90;;;;;;6146859;23;20013;-84
2024/01/25 04:35:03;;;;;;;26.40;4.15;;;5.30;99.90;;;;;;6146961;23;20052;-85
2024/01/25 04:37:30;;;;;;;27.85;3.70;;;5.40;99.90;;;;;;6147221;23;20457;-84
2024/01/25 04:39:57;;;;;;;30.08;5.45;;;5.40;99.90;;;;;;6147239;23;20013;-84
2024/01/25 04:42:23;;;;;;;28.30;3.85;;;5.30;99.90;;;;;;6147041;23;20074;-84
2024/01/25 04:44:50;;;;;;;30.75;3.75;;;5.30;99.90;;;;;;6146876;23;20013;-84
2024/01/25 04:47:16;;;;;;;39.92;4.93;;;5.60;99.90;;;;;;6147215;23;20092;-84
2024/01/25 04:49:43;;;;;;;25.73;3.97;;;5.30;99.90;;;;;;6146984;23;20024;-84
2024/01/25 04:52:10;;;;;;;29.10;4.07;;;5.40;99.90;;;;;;6147155;23;20014;-84
2024/01/25 04:54:36;;;;;;;29.90;4.50;;;5.20;99.90;;;;;;6171420;23;20360;-85
2024/01/25 04:57:06;;;;;;;25.60;3.67;;;5.60;99.90;;;;;;6146923;23;20013;-84
2024/01/25 04:59:33;;;;;;;28.63;4.97;;;5.20;99.90;;;;;;6147590;23;20056;-84
2024/01/25 05:02:00;;;;;;;29.25;4.07;;;5.30;99.90;;;;;;6149049;23;20392;-84
2024/01/25 05:04:29;;;;;;;32.10;4.53;;;6.20;99.90;;;;;;6148854;23;20096;-85
2024/01/25 05:06:55;;;;;;;35.75;4.50;;;5.20;99.90;;;;;;6148963;23;20036;-85
2024/01/25 05:09:22;;;;;;;34.33;4.35;;;5.30;99.90;;;;;;6148645;23;20017;-84
2024/01/25 05:11:49;;;;;;;22.90;3.45;;;5.60;99.90;;;;;;6148992;23;20013;-84
2024/01/25 05:14:15;;;;;;;17.50;3.20;;;5.20;99.90;;;;;;6148835;23;20009;-84
2024/01/25 05:16:42;;;;;;;34.95;4.30;;;5.80;99.90;;;;;;6173047;23;20021;-84
2024/01/25 05:19:09;;;;;;;22.15;4.40;;;5.20;99.90;;;;;;6148920;23;20022;-84
2024/01/25 05:21:35;;;;;;;30.23;4.32;;;5.40;99.90;;;;;;6148719;23;20508;-84
2024/01/25 05:24:02;;;;;;;24.80;4.38;;;5.10;99.90;;;;;;6148753;23;20444;-84
2024/01/25 05:26:29;;;;;;;28.13;4.00;;;5.10;99.90;;;;;;6148400;23;20096;-84
2024/01/25 05:28:55;;;;;;;26.08;4.88;;;5.10;99.90;;;;;;6148631;23;20504;-84
2024/01/25 05:31:22;;;;;;;21.98;3.65;;;5.10;99.90;;;;;;6148632;23;20006;-85
2024/01/25 05:33:48;;;;;;;42.38;4.72;;;5.50;99.90;;;;;;6148200;23;20432;-85
2024/01/25 05:36:15;;;;;;;29.05;4.55;;;5.50;99.90;;;;;;6148782;23;20005;-84
2024/01/25 05:38:42;;;;;;;34.22;5.85;;;5.00;99.90;;;;;;6148400;23;20009;-84
2024/01/25 05:41:08;;;;;;;30.85;3.90;;;6.20;99.90;;;;;;6148365;23;20072;-84
2024/01/25 05:43:35;;;;;;;31.88;4.53;;;6.00;99.90;;;;;;6148359;23;20453;-84
2024/01/25 05:46:01;;;;;;;33.28;4.32;;;6.10;99.90;;;;;;6172849;23;20080;-84
2024/01/25 05:48:28;;;;;;;27.75;3.70;;;5.00;99.90;;;;;;6148076;23;20444;-84
2024/01/25 05:50:55;;;;;;;28.30;4.53;;;5.00;99.90;;;;;;6148450;23;20010;-84
2024/01/25 05:53:22;;;;;;;26.00;4.13;;;5.50;99.90;;;;;;6148263;23;20014;-84
2024/01/25 05:55:48;;;;;;;33.67;4.30;;;4.90;99.90;;;;;;6148231;23;20005;-84
2024/01/25 05:58:15;;;;;;;25.95;4.07;;;5.10;99.90;;;;;;6148289;23;20100;-84
2024/01/25 06:00:42;;;;;;;26.38;4.35;;;4.80;99.90;;;;;;6148424;23;20401;-84
2024/01/25 06:03:09;;;;;;;28.08;4.07;;;5.30;99.90;;;;;;6148188;23;20052;-84
2024/01/25 06:05:36;;;;;;;29.75;4.10;;;5.00;99.90;;;;;;6148387;23;20017;-84
2024/01/25 06:08:03;;;;;;;30.60;4.10;;;6.00;99.90;;;;;;6148185;23;20092;-84
2024/01/25 06:10:29;;;;;;;39.92;4.72;;;4.80;99.90;;;;;;6147772;23;20369;-84
2024/01/25 06:12:56;;;;;;;27.33;4.13;;;4.80;99.90;;;;;;6172067;23;20021;-84
2024/01/25 06:15:22;;;;;;;34.45;4.50;;;5.50;99.90;;;;;;6148362;23;20006;-84
2024/01/25 06:17:49;;;;;;;24.20;3.88;;;4.70;99.90;;;;;;6172462;23;20055;-83
2024/01/25 06:20:16;;;;;;;36.33;4.57;;;4.60;99.90;;;;;;6148003;23;20044;-84
2024/01/25 06:22:42;;;;;;;34.72;4.57;;;4.70;99.90;;;;;;6172570;23;20431;-84
2024/01/25 06:25:09;;;;;;;27.10;4.20;;;5.60;99.90;;;;;;6172246;23;20072;-84
2024/01/25 06:27:36;;;;;;;26.60;4.47;;;4.70;99.90;;;;;;6148011;23;20385;-84
2024/01/25 06:30:03;;;;;;;32.20;4.40;;;4.60;99.90;;;;;;6147896;23;20326;-84
2024/01/25 06:32:29;;;;;;;30.17;3.70;;;4.70;99.90;;;;;;6147863;23;20017;-84
2024/01/25 06:34:56;;;;;;;28.42;3.88;;;4.60;99.90;;;;;;6148058;23;20017;-84
2024/01/25 06:37:22;;;;;;;23.83;4.10;;;4.60;99.90;;;;;;6147539;23;20005;-84
2024/01/25 06:39:49;;;;;;;33.67;4.43;;;4.60;99.90;;;;;;6147867;23;20044;-84
2024/01/25 06:42:16;;;;;;;29.75;4.03;;;4.60;99.90;;;;;;6147811;23;20024;-84
2024/01/25 06:44:44;;;;;;;28.73;4.70;;;4.60;99.90;;;;;;6147874;23;20013;-84
2024/01/25 06:47:10;;;;;;;21.55;3.42;;;4.60;99.90;;;;;;6147785;23;20017;-84
2024/01/25 06:49:37;;;;;;;28.98;4.03;;;4.60;99.90;;;;;;6147647;23;20040;-83
2024/01/25 06:52:04;;;;;;;33.85;3.83;;;4.90;99.90;;;;;;6147848;23;20014;-84
2024/01/25 06:54:31;;;;;;;35.28;3.85;;;4.50;99.90;;;;;;6147146;23;20009;-84
2024/01/25 06:56:57;;;;;;;26.40;4.15;;;4.50;99.90;;;;;;6147628;23;20009;-84
2024/01/25 06:59:24;;;;;;;35.03;4.53;;;4.70;99.90;;;;;;6147358;23;20097;-84
2024/01/25 07:01:51;;;;;;;37.78;4.47;;;4.80;99.90;;;;;;6147486;23;20017;-84
2024/01/25 07:04:18;;;;;;;38.17;5.40;;;4.50;99.90;;;;;;6147033;23;20424;-84
2024/01/25 07:06:45;;;;;;;36.78;4.65;;;4.70;99.90;;;;;;6147099;23;20017;-84
2024/01/25 07:09:11;;;;;;;32.10;4.20;;;4.50;99.90;;;;;;6171236;23;20017;-83
2024/01/25 07:11:38;;;;;;;36.55;6.00;;;4.90;99.90;;;;;;6146801;23;20016;-84
2024/01/25 07:14:05;;;;;;;38.10;5.07;;;4.40;99.90;;;;;;6147569;23;20137;-84
2024/01/25 07:16:31;;;;;;;34.67;4.00;;;4.70;99.90;;;;;;6171490;23;20013;-84
2024/01/25 07:18:58;;;;;;;29.92;4.68;;;4.80;99.90;;;;;;6171192;23;20093;-84
2024/01/25 07:21:24;;;;;;;32.15;4.05;;;4.80;99.90;;;;;;6146850;23;20018;-83
2024/01/25 07:23:51;;;;;;;35.80;4.57;;;4.40;99.90;;;;;;6146948;23;20013;-84
2024/01/25 07:26:18;;;;;;;28.65;3.92;;;5.50;99.90;;;;;;6171471;23;20347;-83
2024/01/25 07:28:46;;;;;;;30.60;4.07;;;4.40;99.90;;;;;;6146644;23;20380;-84
2024/01/25 07:31:12;;;;;;;35.45;4.43;;;5.10;99.90;;;;;;6147334;23;20013;-84
2024/01/25 07:33:39;;;;;;;35.28;4.60;;;4.50;99.90;;;;;;6146815;23;20024;-83
2024/01/25 07:36:06;;;;;;;32.05;4.28;;;4.40;99.90;;;;;;6147171;23;20140;-83
2024/01/25 07:38:33;;;;;;;32.45;4.18;;;4.30;99.90;;;;;;6146756;23;20051;-83
2024/01/25 07:40:59;;;;;;;32.42;4.45;;;5.20;99.90;;;;;;6147013;23;20077;-84
2024/01/25 07:43:26;;;;;;;42.70;5.43;;;4.40;99.90;;;;;;6147348;23;20021;-84
2024/01/25 07:45:52;;;;;;;24.10;4.28;;;5.30;99.90;;;;;;6147054;23;20013;-84
2024/01/25 07:48:19;;;;;;;41.17;4.90;;;4.30;99.90;;;;;;6146695;23;20044;-83
2024/01/25 07:50:46;;;;;;;33.70;3.53;;;4.30;99.90;;;;;;6146950;23;20829;-84
2024/01/25 07:53:14;;;;;;;29.42;4.30;;;4.60;99.90;;;;;;6146891;23;20059;-83
2024/01/25 07:55:41;;;;;;;30.85;4.13;;;4.50;99.90;;;;;;6171366;23;20595;-84
2024/01/25 07:58:07;;;;;;;34.30;4.90;;;4.30;99.90;;;;;;6146776;23;20066;-84
2024/01/25 08:00:34;;;;;;;23.33;4.35;;;4.80;99.90;;;;;;6146969;23;20021;-84
2024/01/25 08:03:00;;;;;;;26.33;4.50;;;4.60;99.90;;;;;;6146786;23;20577;-84
2024/01/25 08:05:27;;;;;;;30.42;4.00;;;4.60;99.90;;;;;;6146775;23;20017;-84
2024/01/25 08:07:54;;;;;;;27.98;4.43;;;4.50;99.90;;;;;;6146774;23;20010;-84
2024/01/25 08:10:20;;;;;;;45.95;5.10;;;5.00;99.90;;;;;;6146901;23;20037;-83
2024/01/25 08:12:47;;;;;;;28.40;4.35;;;5.30;99.90;;;;;;6147031;23;20468;-84
2024/01/25 08:15:14;;;;;;;25.98;4.22;;;4.50;99.90;;;;;;6146894;23;20013;-83
2024/01/25 08:17:41;;;;;;;31.83;4.88;;;5.20;99.90;;;;;;6165764;23;20471;-84
2024/01/25 08:20:09;;;;;;;34.25;4.95;;;4.60;99.90;;;;;;6166115;23;20125;-84
2024/01/25 08:22:36;;;;;;;32.65;5.10;;;4.60;99.90;;;;;;6141975;23;20018;-83
2024/01/25 08:25:04;;;;;;;40.00;4.93;;;4.90;99.90;;;;;;6141554;23;20017;-83
2024/01/25 08:27:31;;;;;;;35.97;4.57;;;4.60;99.90;;;;;;6141771;23;20393;-84
2024/01/25 08:29:57;;;;;;;31.85;4.63;;;5.30;99.90;;;;;;6141525;23;20014;-84
2024/01/25 08:32:24;;;;;;;32.00;4.05;;;5.60;99.90;;;;;;6141583;23;20576;-83
2024/01/25 08:34:51;;;;;;;36.45;4.93;;;5.70;99.90;;;;;;6141150;23;20017;-83
2024/01/25 08:37:17;;;;;;;25.67;4.32;;;5.50;99.90;;;;;;6141715;23;20036;-84
2024/01/25 08:39:45;;;;;;;36.47;5.32;;;4.70;99.90;;;;;;6141434;23;20013;-83
2024/01/25 08:42:12;;;;;;;34.20;4.93;;;5.50;99.90;;;;;;6165674;23;20056;-83
2024/01/25 08:44:40;;;;;;;29.85;4.28;;;4.80;99.90;;;;;;6141717;23;20022;-84
2024/01/25 08:47:07;;;;;;;30.85;4.72;;;5.60;99.90;;;;;;6141635;23;20476;-84
2024/01/25 08:49:38;;;;;;;32.85;4.63;;;4.80;99.90;;;;;;6141609;23;20014;-83
2024/01/25 08:52:06;;;;;;;34.17;6.30;;;4.80;99.90;;;;;;6166163;23;20012;-84
2024/01/25 08:54:33;;;;;;;38.20;7.63;;;4.90;99.90;;;;;;6141693;23;20393;-83
2024/01/25 08:57:00;;;;;;;25.33;4.25;;;4.90;99.90;;;;;;6141400;23;20010;-83
2024/01/25 08:59:29;;;;;;;34.90;5.15;;;4.90;99.90;;;;;;6141396;23;20025;-83
2024/01/25 09:01:57;;;;;;;36.10;4.82;;;5.70;99.90;;;;;;6141396;23;20017;-92
2024/01/25 09:04:24;;;;;;;37.70;5.40;;;6.00;99.90;;;;;;6119031;23;20033;-93
2024/01/25 09:06:50;;;;;;;30.25;4.55;;;5.10;99.90;;;;;;6143211;23;20017;-92
2024/01/25 09:09:17;;;;;;;36.25;4.38;;;5.10;99.90;;;;;;6143235;23;20065;-93
2024/01/25 09:11:44;;;;;;;36.97;4.53;;;6.00;99.90;;;;;;6142698;23;20006;-93
2024/01/25 09:14:10;;;;;;;30.05;4.22;;;5.50;99.90;;;;;;6142590;23;20016;-91
2024/01/25 09:16:38;;;;;;;38.17;4.88;;;5.80;99.90;;;;;;6142571;23;20454;-91
2024/01/25 09:19:05;;;;;;;37.53;5.47;;;5.20;99.90;;;;;;6142533;23;20014;-93
2024/01/25 09:21:31;;;;;;;36.25;4.97;;;5.30;99.90;;;;;;6143088;23;20477;-92
2024/01/25 09:23:59;;;;;;;27.60;5.15;;;6.20;99.90;;;;;;6142923;23;20045;-94
2024/01/25 09:26:26;;;;;;;33.83;4.90;;;5.30;99.90;;;;;;6142826;23;20025;-92
2024/01/25 09:28:52;;;;;;;39.88;4.63;;;5.40;99.90;;;;;;6142909;23;20014;-92
2024/01/25 09:31:19;;;;;;;34.40;4.60;;;5.40;99.90;;;;;;6142806;23;20034;-92
2024/01/25 09:33:45;;;;;;;33.67;4.90;;;5.40;99.90;;;;;;6142896;23;20010;-91
2024/01/25 09:36:12;;;;;;;28.38;5.22;;;5.50;99.90;;;;;;6143218;23;20014;-92
2024/01/25 09:38:39;;;;;;;30.23;5.97;;;5.60;99.90;;;;;;6142959;23;20010;-93
2024/01/25 09:41:05;;;;;;;32.25;5.28;;;5.50;99.90;;;;;;6142814;23;20077;-93
2024/01/25 09:43:32;;;;;;;31.77;4.53;;;5.50;99.90;;;;;;6142901;23;20096;-93
2024/01/25 09:46:00;;;;;;;35.63;5.28;;;5.50;99.90;;;;;;6143467;23;20018;-93
2024/01/25 09:48:27;;;;;;;33.55;4.57;;;6.00;99.90;;;;;;6169026;23;21093;-92
2024/01/25 09:50:55;;;;;;;35.78;5.22;;;6.30;99.90;;;;;;6144873;23;20093;-93
2024/01/25 09:53:22;;;;;;;33.95;4.68;;;5.80;99.90;;;;;;6144597;23;20480;-92
2024/01/25 09:56:09;;;;;;;24.45;4.90;;;5.70;99.90;;;;;;6168356;23;20017;-93
2024/01/25 09:58:41;;;;;;;31.15;4.97;;;5.80;99.90;;;;;;6144523;23;20029;-93
2024/01/25 10:01:12;;;;;;;32.75;5.32;;;5.80;99.90;;;;;;6168711;23;20018;-93
2024/01/25 10:03:43;;;;;;;29.83;4.93;;;6.30;99.90;;;;;;6144252;23;20020;-92
2024/01/25 10:06:14;;;;;;;44.22;6.13;;;6.40;99.90;;;;;;6144161;23;20504;-93
2024/01/25 10:08:41;;;;;;;36.05;4.60;;;5.90;99.90;;;;;;6143294;23;20018;-93
2024/01/25 10:11:08;;;;;;;31.90;4.80;;;6.50;99.90;;;;;;6168654;23;20016;-93
2024/01/25 10:13:45;;;;;;;36.53;5.05;;;6.00;99.90;;;;;;6143738;23;20097;-92
2024/01/25 10:16:17;;;;;;;39.63;5.88;;;6.50;99.90;;;;;;6148997;23;20022;-92
2024/01/25 10:18:47;;;;;;;33.17;5.30;;;6.30;99.90;;;;;;6149140;23;20010;-93
2024/01/25 10:21:14;;;;;;;34.35;4.88;;;6.10;99.90;;;;;;6150864;23;20025;-93
2024/01/25 10:23:44;;;;;;;31.17;6.15;;;6.30;99.90;;;;;;6149578;23;20097;-92
2024/01/25 10:26:10;;;;;;;42.95;5.40;;;6.60;99.90;;;;;;6149164;23;20017;-94
2024/01/25 10:28:37;;;;;;;32.38;4.80;;;6.50;99.90;;;;;;6148848;23;20020;-93
2024/01/25 10:31:04;;;;;;;37.85;4.75;;;6.40;99.90;;;;;;6149246;23;20009;-93
2024/01/25 10:33:31;;;;;;;32.28;5.30;;;6.60;99.90;;;;;;6148069;23;20503;-94
2024/01/25 10:36:02;;;;;;;40.72;5.78;;;6.80;99.90;;;;;;6173618;23;20017;-92
2024/01/25 10:38:34;;;;;;;32.95;5.22;;;6.30;99.90;;;;;;6148527;23;20053;-93
2024/01/25 10:41:05;;;;;;;32.88;5.40;;;6.40;99.90;;;;;;6148920;23;20010;-93
2024/01/25 10:43:32;;;;;;;33.00;5.13;;;7.10;99.90;;;;;;6148842;23;20028;-91
2024/01/25 10:46:00;;;;;;;29.08;4.90;;;6.50;99.90;;;;;;6148719;23;20018;-92
2024/01/25 10:48:27;;;;;;;39.00;5.50;;;6.40;99.90;;;;;;6149010;23;20397;-92
2024/01/25 10:50:55;;;;;;;37.42;5.53;;;6.40;99.90;;;;;;6148604;23;20005;-92
2024/01/25 10:53:24;;;;;;;36.10;5.60;;;6.80;99.90;;;;;;6149276;23;20017;-91
2024/01/25 10:55:51;;;;;;;41.53;6.22;;;6.80;99.90;;;;;;6148781;23;20060;-92
2024/01/25 10:58:18;;;;;;;32.75;6.05;;;6.40;99.90;;;;;;6148467;23;20013;-93
2024/01/25 11:00:55;;;;;;;31.40;6.00;;;7.40;99.90;;;;;;6148428;23;20017;-91
2024/01/25 11:03:27;;;;;;;25.98;4.95;;;6.50;99.90;;;;;;6148932;23;20021;-93
2024/01/25 11:06:10;;;;;;;30.35;6.05;;;6.40;99.90;;;;;;6148936;23;20092;-92
2024/01/25 11:08:40;;;;;;;25.00;4.53;;;6.50;99.90;;;;;;6148851;23;20017;-93
2024/01/25 11:11:10;;;;;;;32.78;5.00;;;6.80;99.90;;;;;;6148713;23;20013;-91
2024/01/25 11:13:42;;;;;;;37.42;6.13;;;7.40;99.90;;;;;;6173191;23;20017;-92
2024/01/25 11:16:17;;;;;;;34.25;5.40;;;6.90;99.90;;;;;;6148343;23;20048;-93
2024/01/25 11:18:52;;;;;;;39.23;5.70;;;7.40;99.90;;;;;;6148936;23;20028;-92
2024/01/25 11:21:45;;;;;;;49.58;7.53;;;6.70;99.90;;;;;;6148577;23;20455;-92
2024/01/25 11:24:19;;;;;;;36.60;6.65;;;6.80;99.90;;;;;;6157907;23;20013;-92
2024/01/25 11:26:49;;;;;;;35.58;6.45;;;7.00;99.90;;;;;;6173451;23;20025;-92
2024/01/25 11:29:17;;;;;;;33.30;6.05;;;7.80;99.90;;;;;;6173013;23;20064;-92
2024/01/25 11:31:49;;;;;;;32.60;5.43;;;7.50;99.90;;;;;;6148002;23;20025;-92
2024/01/25 11:34:17;;;;;;;40.20;6.60;;;7.20;99.90;;;;;;6147676;23;20044;-93
2024/01/25 11:36:45;;;;;;;34.75;6.32;;;7.30;99.90;;;;;;6148546;23;20005;-91
2024/01/25 11:39:13;;;;;;;46.20;6.82;;;8.30;99.90;;;;;;6148391;23;20096;-92
2024/01/25 11:41:45;;;;;;;30.70;6.25;;;7.40;99.90;;;;;;6148750;23;20096;-92
2024/01/25 11:44:15;;;;;;;40.30;8.52;;;7.40;99.90;;;;;;6148124;23;20013;-93
2024/01/25 11:46:43;;;;;;;37.97;6.53;;;7.70;99.90;;;;;;6148456;23;20032;-92
2024/01/25 11:49:09;;;;;;;31.05;6.07;;;8.10;99.90;;;;;;6148118;23;20013;-93
2024/01/25 11:51:36;;;;;;;38.85;6.53;;;7.80;99.90;;;;;;6148437;23;20066;-92
2024/01/25 11:54:06;;;;;;;31.88;6.82;;;8.20;99.90;;;;;;6148043;23;20349;-92
2024/01/25 11:56:39;;;;;;;31.48;7.35;;;7.30;99.90;;;;;;6148223;23;20014;-93
2024/01/25 11:59:06;;;;;;;22.38;5.13;;;7.90;99.90;;;;;;6148080;23;20096;-91
2024/01/25 12:01:33;;;;;;;29.92;5.63;;;7.30;99.90;;;;;;6147984;23;20088;-92
2024/01/25 12:04:01;;;;;;;26.75;5.22;;;7.60;99.90;;;;;;6148282;23;20045;-93
2024/01/25 12:06:28;;;;;;;24.75;5.25;;;7.70;99.90;;;;;;6148225;23;20021;-93
2024/01/25 12:08:55;;;;;;;34.92;5.00;;;7.50;99.90;;;;;;6147551;23;20017;-92
2024/01/25 12:11:22;;;;;;;26.13;4.93;;;8.20;99.90;;;;;;6148188;23;20040;-92
2024/01/25 12:13:49;;;;;;;32.17;5.07;;;7.40;99.90;;;;;;6148635;23;20014;-93
2024/01/25 12:16:16;;;;;;;32.17;4.60;;;7.40;99.90;;;;;;6147972;23;20088;-92
2024/01/25 12:18:44;;;;;;;32.83;5.82;;;7.40;99.90;;;;;;6147900;23;20017;-92
2024/01/25 12:21:11;;;;;;;31.40;5.53;;;7.50;99.90;;;;;;6148386;23;20080;-93
2024/01/25 12:23:39;;;;;;;35.03;7.65;;;7.40;99.90;;;;;;6147622;23;20017;-91
2024/01/25 12:26:10;;;;;;;25.58;5.60;;;8.40;99.90;;;;;;6148361;23;20326;-91
2024/01/25 12:28:37;;;;;;;28.83;5.50;;;7.40;99.90;;;;;;6147961;23;20100;-93
2024/01/25 12:31:05;;;;;;;29.30;5.63;;;8.40;99.90;;;;;;6148164;23;20010;-91
2024/01/25 12:33:33;;;;;;;33.03;5.63;;;7.70;99.90;;;;;;6148195;23;20089;-89
2024/01/25 12:36:01;;;;;;;33.47;6.10;;;8.00;99.90;;;;;;6147923;23;20013;-93
2024/01/25 12:38:29;;;;;;;30.20;4.78;;;7.90;99.90;;;;;;6148559;23;20060;-93
2024/01/25 12:40:56;;;;;;;32.47;5.10;;;7.50;99.90;;;;;;6172335;23;20013;-92
2024/01/25 12:43:22;;;;;;;32.30;4.68;;;7.50;99.90;;;;;;6149148;23;20018;-93
2024/01/25 12:45:49;;;;;;;37.97;6.20;;;7.70;99.90;;;;;;6150065;23;20096;-93
2024/01/25 12:48:18;;;;;;;23.33;4.95;;;7.50;99.90;;;;;;6147776;23;20021;-91